Aviation Digital Data Service (ADDS)

Output produced by METARs form (1843 UTC 25 September 2020)
found at http://www.aviationweather.gov/metar/data/
 
METAR text: LUKK 251830Z 14008KT CAVOK 20/16 Q1008 R09/D NOSIG
Conditions at: LUKK (CHISINAU INTL , MD) observed 1830 UTC 25 September 2020
Temperature: 20.0°C (68°F)
Dewpoint: 16.0°C (61°F) [RH = 78%]
Pressure (altimeter): 29.76 inches Hg (1008.0 mb)
Winds: from the SE (140 degrees) at 9 MPH (8 knots; 4.1 m/s)
Visibility: 6 or more miles (10+ km)
Ceiling: ceiling and visibility are OK
Clouds: unknown
Weather: no significant weather observed at this time

METAR text: LUKK 251800Z 15009KT CAVOK 21/16 Q1008 R27/D NOSIG
Conditions at: LUKK (CHISINAU INTL , MD) observed 1800 UTC 25 September 2020
Temperature: 21.0°C (70°F)
Dewpoint: 16.0°C (61°F) [RH = 73%]
Pressure (altimeter): 29.76 inches Hg (1008.0 mb)
Winds: from the SSE (150 degrees) at 10 MPH (9 knots; 4.6 m/s)
Visibility: 6 or more miles (10+ km)
Ceiling: ceiling and visibility are OK
Clouds: unknown
Weather: no significant weather observed at this time

METAR text: LUKK 251730Z 15010KT CAVOK 22/14 Q1008 R27/D NOSIG
Conditions at: LUKK (CHISINAU INTL , MD) observed 1730 UTC 25 September 2020
Temperature: 22.0°C (72°F)
Dewpoint: 14.0°C (57°F) [RH = 60%]
Pressure (altimeter): 29.76 inches Hg (1008.0 mb)
Winds: from the SSE (150 degrees) at 12 MPH (10 knots; 5.1 m/s)
Visibility: 6 or more miles (10+ km)
Ceiling: ceiling and visibility are OK
Clouds: unknown
Weather: no significant weather observed at this time

METAR text: LUKK 251700Z 16011KT CAVOK 22/13 Q1008 R27/D NOSIG
Conditions at: LUKK (CHISINAU INTL , MD) observed 1700 UTC 25 September 2020
Temperature: 22.0°C (72°F)
Dewpoint: 13.0°C (55°F) [RH = 57%]
Pressure (altimeter): 29.76 inches Hg (1008.0 mb)
Winds: from the SSE (160 degrees) at 13 MPH (11 knots; 5.7 m/s)
Visibility: 6 or more miles (10+ km)
Ceiling: ceiling and visibility are OK
Clouds: unknown
Weather: no significant weather observed at this time

METAR text: LUKK 251630Z 15009KT CAVOK 24/12 Q1007 R27/D NOSIG
Conditions at: LUKK (CHISINAU INTL , MD) observed 1630 UTC 25 September 2020
Temperature: 24.0°C (75°F)
Dewpoint: 12.0°C (54°F) [RH = 47%]
Pressure (altimeter): 29.73 inches Hg (1007.0 mb)
Winds: from the SSE (150 degrees) at 10 MPH (9 knots; 4.6 m/s)
Visibility: 6 or more miles (10+ km)
Ceiling: ceiling and visibility are OK
Clouds: unknown
Weather: no significant weather observed at this time

METAR text: LUKK 251600Z 15011KT CAVOK 25/13 Q1007 R27/D NOSIG
Conditions at: LUKK (CHISINAU INTL , MD) observed 1600 UTC 25 September 2020
Temperature: 25.0°C (77°F)
Dewpoint: 13.0°C (55°F) [RH = 47%]
Pressure (altimeter): 29.73 inches Hg (1007.0 mb)
Winds: from the SSE (150 degrees) at 13 MPH (11 knots; 5.7 m/s)
Visibility: 6 or more miles (10+ km)
Ceiling: ceiling and visibility are OK
Clouds: unknown
Weather: no significant weather observed at this time

METAR text: LUKK 251530Z 16011KT CAVOK 25/14 Q1007 R27/D NOSIG
Conditions at: LUKK (CHISINAU INTL , MD) observed 1530 UTC 25 September 2020
Temperature: 25.0°C (77°F)
Dewpoint: 14.0°C (57°F) [RH = 50%]
Pressure (altimeter): 29.73 inches Hg (1007.0 mb)
Winds: from the SSE (160 degrees) at 13 MPH (11 knots; 5.7 m/s)
Visibility: 6 or more miles (10+ km)
Ceiling: ceiling and visibility are OK
Clouds: unknown
Weather: no significant weather observed at this time

METAR text: LUKK 251500Z 15012KT CAVOK 26/15 Q1008 R27/D NOSIG
Conditions at: LUKK (CHISINAU INTL , MD) observed 1500 UTC 25 September 2020
Temperature: 26.0°C (79°F)
Dewpoint: 15.0°C (59°F) [RH = 51%]
Pressure (altimeter): 29.76 inches Hg (1008.0 mb)
Winds: from the SSE (150 degrees) at 14 MPH (12 knots; 6.2 m/s)
Visibility: 6 or more miles (10+ km)
Ceiling: ceiling and visibility are OK
Clouds: unknown
Weather: no significant weather observed at this time

METAR text: LUKK 251430Z 15010KT CAVOK 27/14 Q1008 R27/D TEMPO SCT050CB
Conditions at: LUKK (CHISINAU INTL , MD) observed 1430 UTC 25 September 2020
Temperature: 27.0°C (81°F)
Dewpoint: 14.0°C (57°F) [RH = 45%]
Pressure (altimeter): 29.76 inches Hg (1008.0 mb)
Winds: from the SSE (150 degrees) at 12 MPH (10 knots; 5.1 m/s)
Visibility: 6 or more miles (10+ km)
Ceiling: ceiling and visibility are OK
Clouds: unknown
Weather: no significant weather observed at this time

METAR text: LUKK 251400Z 16011KT 130V190 CAVOK 27/13 Q1008 R27/D TEMPO SCT050CB
Conditions at: LUKK (CHISINAU INTL , MD) observed 1400 UTC 25 September 2020
Temperature: 27.0°C (81°F)
Dewpoint: 13.0°C (55°F) [RH = 42%]
Pressure (altimeter): 29.76 inches Hg (1008.0 mb)
Winds: from the SSE (160 degrees) at 13 MPH (11 knots; 5.7 m/s)
Visibility: 6 or more miles (10+ km)
Ceiling: ceiling and visibility are OK
Clouds: unknown
Weather: no significant weather observed at this time

METAR text: LUKK 251330Z 19009KT 160V220 CAVOK 28/14 Q1008 R27/D NOSIG
Conditions at: LUKK (CHISINAU INTL , MD) observed 1330 UTC 25 September 2020
Temperature: 28.0°C (82°F)
Dewpoint: 14.0°C (57°F) [RH = 42%]
Pressure (altimeter): 29.76 inches Hg (1008.0 mb)
Winds: from the S (190 degrees) at 10 MPH (9 knots; 4.6 m/s)
Visibility: 6 or more miles (10+ km)
Ceiling: ceiling and visibility are OK
Clouds: unknown
Weather: no significant weather observed at this time

METAR text: LUKK 251300Z 18009KT 150V220 CAVOK 28/14 Q1008 R27/D NOSIG
Conditions at: LUKK (CHISINAU INTL , MD) observed 1300 UTC 25 September 2020
Temperature: 28.0°C (82°F)
Dewpoint: 14.0°C (57°F) [RH = 42%]
Pressure (altimeter): 29.76 inches Hg (1008.0 mb)
Winds: from the S (180 degrees) at 10 MPH (9 knots; 4.6 m/s)
Visibility: 6 or more miles (10+ km)
Ceiling: ceiling and visibility are OK
Clouds: unknown
Weather: no significant weather observed at this time

METAR text: LUKK 251230Z 20010KT 160V230 CAVOK 28/15 Q1009 R27/D NOSIG
Conditions at: LUKK (CHISINAU INTL , MD) observed 1230 UTC 25 September 2020
Temperature: 28.0°C (82°F)
Dewpoint: 15.0°C (59°F) [RH = 45%]
Pressure (altimeter): 29.79 inches Hg (1009.0 mb)
Winds: from the SSW (200 degrees) at 12 MPH (10 knots; 5.1 m/s)
Visibility: 6 or more miles (10+ km)
Ceiling: ceiling and visibility are OK
Clouds: unknown
Weather: no significant weather observed at this time

METAR text: LUKK 251200Z 17010KT 140V220 CAVOK 28/15 Q1009 R27/D NOSIG
Conditions at: LUKK (CHISINAU INTL , MD) observed 1200 UTC 25 September 2020
Temperature: 28.0°C (82°F)
Dewpoint: 15.0°C (59°F) [RH = 45%]
Pressure (altimeter): 29.79 inches Hg (1009.0 mb)
Winds: from the S (170 degrees) at 12 MPH (10 knots; 5.1 m/s)
Visibility: 6 or more miles (10+ km)
Ceiling: ceiling and visibility are OK
Clouds: unknown
Weather: no significant weather observed at this time

METAR text: LUKK 251130Z 17009KT 140V200 9999 FEW049 27/15 Q1009 R27/D NOSIG
Conditions at: LUKK (CHISINAU INTL , MD) observed 1130 UTC 25 September 2020
Temperature: 27.0°C (81°F)
Dewpoint: 15.0°C (59°F) [RH = 48%]
Pressure (altimeter): 29.79 inches Hg (1009.0 mb)
Winds: from the S (170 degrees) at 10 MPH (9 knots; 4.6 m/s)
Visibility: 6 or more miles (10+ km)
Ceiling: at least 12,000 feet AGL
Clouds: few clouds at 4900 feet AGL
Weather: no significant weather observed at this time

METAR text: LUKK 251100Z 19007KT 130V250 9999 FEW043 27/15 Q1010 R27/D NOSIG
Conditions at: LUKK (CHISINAU INTL , MD) observed 1100 UTC 25 September 2020
Temperature: 27.0°C (81°F)
Dewpoint: 15.0°C (59°F) [RH = 48%]
Pressure (altimeter): 29.82 inches Hg (1010.0 mb)
Winds: from the S (190 degrees) at 8 MPH (7 knots; 3.6 m/s)
Visibility: 6 or more miles (10+ km)
Ceiling: at least 12,000 feet AGL
Clouds: few clouds at 4300 feet AGL
Weather: no significant weather observed at this time

METAR text: LUKK 251030Z 19008KT 130V220 9999 FEW037 26/17 Q1010 R27/D NOSIG
Conditions at: LUKK (CHISINAU INTL , MD) observed 1030 UTC 25 September 2020
Temperature: 26.0°C (79°F)
Dewpoint: 17.0°C (63°F) [RH = 58%]
Pressure (altimeter): 29.82 inches Hg (1010.0 mb)
Winds: from the S (190 degrees) at 9 MPH (8 knots; 4.1 m/s)
Visibility: 6 or more miles (10+ km)
Ceiling: at least 12,000 feet AGL
Clouds: few clouds at 3700 feet AGL
Weather: no significant weather observed at this time

METAR text: LUKK 251000Z 18008KT 140V210 9999 FEW028 25/17 Q1010 R27/D NOSIG
Conditions at: LUKK (CHISINAU INTL , MD) observed 1000 UTC 25 September 2020
Temperature: 25.0°C (77°F)
Dewpoint: 17.0°C (63°F) [RH = 61%]
Pressure (altimeter): 29.82 inches Hg (1010.0 mb)
Winds: from the S (180 degrees) at 9 MPH (8 knots; 4.1 m/s)
Visibility: 6 or more miles (10+ km)
Ceiling: at least 12,000 feet AGL
Clouds: few clouds at 2800 feet AGL
Weather: no significant weather observed at this time

METAR text: LUKK 250930Z 17008KT 140V210 9999 SCT023 24/17 Q1011 R09/D NOSIG
Conditions at: LUKK (CHISINAU INTL , MD) observed 0930 UTC 25 September 2020
Temperature: 24.0°C (75°F)
Dewpoint: 17.0°C (63°F) [RH = 65%]
Pressure (altimeter): 29.85 inches Hg (1011.0 mb)
Winds: from the S (170 degrees) at 9 MPH (8 knots; 4.1 m/s)
Visibility: 6 or more miles (10+ km)
Ceiling: at least 12,000 feet AGL
Clouds: scattered clouds at 2300 feet AGL
Weather: no significant weather observed at this time

METAR text: LUKK 250900Z 17010KT 9999 BKN019 22/17 Q1011 R27/D NOSIG
Conditions at: LUKK (CHISINAU INTL , MD) observed 0900 UTC 25 September 2020
Temperature: 22.0°C (72°F)
Dewpoint: 17.0°C (63°F) [RH = 73%]
Pressure (altimeter): 29.85 inches Hg (1011.0 mb)
Winds: from the S (170 degrees) at 12 MPH (10 knots; 5.1 m/s)
Visibility: 6 or more miles (10+ km)
Ceiling: 1900 feet AGL
Clouds: broken clouds at 1900 feet AGL
Weather: no significant weather observed at this time

METAR text: LUKK 250830Z 16006KT 9999 OVC015 21/18 Q1011 R27/D BECMG SCT020
Conditions at: LUKK (CHISINAU INTL , MD) observed 0830 UTC 25 September 2020
Temperature: 21.0°C (70°F)
Dewpoint: 18.0°C (64°F) [RH = 83%]
Pressure (altimeter): 29.85 inches Hg (1011.0 mb)
Winds: from the SSE (160 degrees) at 7 MPH (6 knots; 3.1 m/s)
Visibility: 6 or more miles (10+ km)
Ceiling: 1500 feet AGL
Clouds: overcast cloud deck at 1500 feet AGL
Weather: no significant weather observed at this time

METAR text: LUKK 250800Z 19006KT 160V220 9999 OVC014 20/18 Q1012 R27/D BECMG SCT020
Conditions at: LUKK (CHISINAU INTL , MD) observed 0800 UTC 25 September 2020
Temperature: 20.0°C (68°F)
Dewpoint: 18.0°C (64°F) [RH = 88%]
Pressure (altimeter): 29.88 inches Hg (1012.0 mb)
Winds: from the S (190 degrees) at 7 MPH (6 knots; 3.1 m/s)
Visibility: 6 or more miles (10+ km)
Ceiling: 1400 feet AGL
Clouds: overcast cloud deck at 1400 feet AGL
Weather: no significant weather observed at this time

METAR text: LUKK 250730Z 17006KT 9999 OVC007 19/18 Q1012 R27/D BECMG SCT009
Conditions at: LUKK (CHISINAU INTL , MD) observed 0730 UTC 25 September 2020
Temperature: 19.0°C (66°F)
Dewpoint: 18.0°C (64°F) [RH = 94%]
Pressure (altimeter): 29.88 inches Hg (1012.0 mb)
Winds: from the S (170 degrees) at 7 MPH (6 knots; 3.1 m/s)
Visibility: 6 or more miles (10+ km)
Ceiling: 700 feet AGL
Clouds: overcast cloud deck at 700 feet AGL
Weather: no significant weather observed at this time

METAR text: LUKK 250700Z 18007KT 7000 OVC004 19/18 Q1012 R27/D BECMG SCT009
Conditions at: LUKK (CHISINAU INTL , MD) observed 0700 UTC 25 September 2020
Temperature: 19.0°C (66°F)
Dewpoint: 18.0°C (64°F) [RH = 94%]
Pressure (altimeter): 29.88 inches Hg (1012.0 mb)
Winds: from the S (180 degrees) at 8 MPH (7 knots; 3.6 m/s)
Visibility: 4 miles ( 7 km)
Ceiling: 400 feet AGL
Clouds: overcast cloud deck at 400 feet AGL
Weather: no significant weather observed at this time

METAR text: LUKK 250630Z 19006KT 9999 OVC005 18/18 Q1012 R27/D NOSIG
Conditions at: LUKK (CHISINAU INTL , MD) observed 0630 UTC 25 September 2020
Temperature: 18.0°C (64°F)
Dewpoint: 18.0°C (64°F) [RH = 100%]
Pressure (altimeter): 29.88 inches Hg (1012.0 mb)
Winds: from the S (190 degrees) at 7 MPH (6 knots; 3.1 m/s)
Visibility: 6 or more miles (10+ km)
Ceiling: 500 feet AGL
Clouds: overcast cloud deck at 500 feet AGL
Weather: no significant weather observed at this time

METAR text: LUKK 250600Z 19005KT 160V220 9999 OVC004 18/18 Q1011 R27/D NOSIG
Conditions at: LUKK (CHISINAU INTL , MD) observed 0600 UTC 25 September 2020
Temperature: 18.0°C (64°F)
Dewpoint: 18.0°C (64°F) [RH = 100%]
Pressure (altimeter): 29.85 inches Hg (1011.0 mb)
Winds: from the S (190 degrees) at 6 MPH (5 knots; 2.6 m/s)
Visibility: 6 or more miles (10+ km)
Ceiling: 400 feet AGL
Clouds: overcast cloud deck at 400 feet AGL
Weather: no significant weather observed at this time

METAR text: LUKK 250530Z 18004KT 140V210 9999 OVC005 18/17 Q1011 R27/110095 NOSIG
Conditions at: LUKK (CHISINAU INTL , MD) observed 0530 UTC 25 September 2020
Temperature: 18.0°C (64°F)
Dewpoint: 17.0°C (63°F) [RH = 94%]
Pressure (altimeter): 29.85 inches Hg (1011.0 mb)
Winds: from the S (180 degrees) at 5 MPH (4 knots; 2.1 m/s)
Visibility: 6 or more miles (10+ km)
Ceiling: 500 feet AGL
Clouds: overcast cloud deck at 500 feet AGL
Weather: no significant weather observed at this time

METAR text: LUKK 250500Z 14003KT 9999 OVC006 18/17 Q1011 R27/110095 NOSIG
Conditions at: LUKK (CHISINAU INTL , MD) observed 0500 UTC 25 September 2020
Temperature: 18.0°C (64°F)
Dewpoint: 17.0°C (63°F) [RH = 94%]
Pressure (altimeter): 29.85 inches Hg (1011.0 mb)
Winds: from the SE (140 degrees) at 3 MPH (3 knots; 1.5 m/s)
Visibility: 6 or more miles (10+ km)
Ceiling: 600 feet AGL
Clouds: overcast cloud deck at 600 feet AGL
Weather: no significant weather observed at this time

METAR text: LUKK 250430Z 14003KT 9999 OVC006 18/17 Q1011 R27/110095 TEMPO 5000 BR BKN003
Conditions at: LUKK (CHISINAU INTL , MD) observed 0430 UTC 25 September 2020
Temperature: 18.0°C (64°F)
Dewpoint: 17.0°C (63°F) [RH = 94%]
Pressure (altimeter): 29.85 inches Hg (1011.0 mb)
Winds: from the SE (140 degrees) at 3 MPH (3 knots; 1.5 m/s)
Visibility: 6 or more miles (10+ km)
Ceiling: 600 feet AGL
Clouds: overcast cloud deck at 600 feet AGL
Weather: no significant weather observed at this time

METAR text: LUKK 250400Z 16003KT 120V180 9999 OVC006 18/17 Q1011 R27/110095 TEMPO 5000 BR BKN003
Conditions at: LUKK (CHISINAU INTL , MD) observed 0400 UTC 25 September 2020
Temperature: 18.0°C (64°F)
Dewpoint: 17.0°C (63°F) [RH = 94%]
Pressure (altimeter): 29.85 inches Hg (1011.0 mb)
Winds: from the SSE (160 degrees) at 3 MPH (3 knots; 1.5 m/s)
Visibility: 6 or more miles (10+ km)
Ceiling: 600 feet AGL
Clouds: overcast cloud deck at 600 feet AGL
Weather: no significant weather observed at this time

METAR text: LUKK 250330Z 13003KT 9999 OVC006 18/17 Q1011 R27/190095 BECMG 5000 BR BKN005
Conditions at: LUKK (CHISINAU INTL , MD) observed 0330 UTC 25 September 2020
Temperature: 18.0°C (64°F)
Dewpoint: 17.0°C (63°F) [RH = 94%]
Pressure (altimeter): 29.85 inches Hg (1011.0 mb)
Winds: from the SE (130 degrees) at 3 MPH (3 knots; 1.5 m/s)
Visibility: 6 or more miles (10+ km)
Ceiling: 600 feet AGL
Clouds: overcast cloud deck at 600 feet AGL
Weather: no significant weather observed at this time

METAR text: LUKK 250300Z 12004KT 9999 OVC008 17/17 Q1011 R27/190095 BECMG 5000 BR BKN005
Conditions at: LUKK (CHISINAU INTL , MD) observed 0300 UTC 25 September 2020
Temperature: 17.0°C (63°F)
Dewpoint: 17.0°C (63°F) [RH = 100%]
Pressure (altimeter): 29.85 inches Hg (1011.0 mb)
Winds: from the ESE (120 degrees) at 5 MPH (4 knots; 2.1 m/s)
Visibility: 6 or more miles (10+ km)
Ceiling: 800 feet AGL
Clouds: overcast cloud deck at 800 feet AGL
Weather: no significant weather observed at this time

METAR text: LUKK 250230Z 11002KT 9999 OVC008 17/17 Q1011 R27/190095 BECMG 5000 BR BKN005
Conditions at: LUKK (CHISINAU INTL , MD) observed 0230 UTC 25 September 2020
Temperature: 17.0°C (63°F)
Dewpoint: 17.0°C (63°F) [RH = 100%]
Pressure (altimeter): 29.85 inches Hg (1011.0 mb)
Winds: from the ESE (110 degrees) at 2 MPH (2 knots; 1.0 m/s)
Visibility: 6 or more miles (10+ km)
Ceiling: 800 feet AGL
Clouds: overcast cloud deck at 800 feet AGL
Weather: no significant weather observed at this time

METAR text: LUKK 250200Z 11004KT 9999 OVC010 17/16 Q1011 R27/190095 BECMG 5000 BR BKN005
Conditions at: LUKK (CHISINAU INTL , MD) observed 0200 UTC 25 September 2020
Temperature: 17.0°C (63°F)
Dewpoint: 16.0°C (61°F) [RH = 94%]
Pressure (altimeter): 29.85 inches Hg (1011.0 mb)
Winds: from the ESE (110 degrees) at 5 MPH (4 knots; 2.1 m/s)
Visibility: 6 or more miles (10+ km)
Ceiling: 1000 feet AGL
Clouds: overcast cloud deck at 1000 feet AGL
Weather: no significant weather observed at this time

METAR text: LUKK 250130Z VRB02KT 9999 OVC010 17/16 Q1011 R09/290152 BECMG 5000 BR BKN005
Conditions at: LUKK (CHISINAU INTL , MD) observed 0130 UTC 25 September 2020
Temperature: 17.0°C (63°F)
Dewpoint: 16.0°C (61°F) [RH = 94%]
Pressure (altimeter): 29.85 inches Hg (1011.0 mb)
Winds: variable direction winds at 2 MPH (2 knots; 1.0 m/s)
Visibility: 6 or more miles (10+ km)
Ceiling: 1000 feet AGL
Clouds: overcast cloud deck at 1000 feet AGL
Weather: no significant weather observed at this time

METAR text: LUKK 250100Z VRB01KT 9999 FEW011 17/16 Q1011 R27/290152 BECMG 5000 BR BKN005
Conditions at: LUKK (CHISINAU INTL , MD) observed 0100 UTC 25 September 2020
Temperature: 17.0°C (63°F)
Dewpoint: 16.0°C (61°F) [RH = 94%]
Pressure (altimeter): 29.85 inches Hg (1011.0 mb)
Winds: variable direction winds at 1 MPH (1 knots; 0.5 m/s)
Visibility: 6 or more miles (10+ km)
Ceiling: at least 12,000 feet AGL
Clouds: few clouds at 1100 feet AGL
Weather: no significant weather observed at this time

METAR text: LUKK 250030Z 00000KT CAVOK 17/16 Q1011 R27/290152 NOSIG
Conditions at: LUKK (CHISINAU INTL , MD) observed 0030 UTC 25 September 2020
Temperature: 17.0°C (63°F)
Dewpoint: 16.0°C (61°F) [RH = 94%]
Pressure (altimeter): 29.85 inches Hg (1011.0 mb)
Winds: calm
Visibility: 6 or more miles (10+ km)
Ceiling: ceiling and visibility are OK
Clouds: unknown
Weather: no significant weather observed at this time

METAR text: LUKK 250000Z 15003KT 080V210 CAVOK 17/16 Q1012 R27/290152 NOSIG
Conditions at: LUKK (CHISINAU INTL , MD) observed 0000 UTC 25 September 2020
Temperature: 17.0°C (63°F)
Dewpoint: 16.0°C (61°F) [RH = 94%]
Pressure (altimeter): 29.88 inches Hg (1012.0 mb)
Winds: from the SSE (150 degrees) at 3 MPH (3 knots; 1.5 m/s)
Visibility: 6 or more miles (10+ km)
Ceiling: ceiling and visibility are OK
Clouds: unknown
Weather: no significant weather observed at this time

METAR text: LUKK 242330Z 11004KT 080V140 CAVOK 18/16 Q1012 R27/290152 TEMPO SCT045CB
Conditions at: LUKK (CHISINAU INTL , MD) observed 2330 UTC 24 September 2020
Temperature: 18.0°C (64°F)
Dewpoint: 16.0°C (61°F) [RH = 88%]
Pressure (altimeter): 29.88 inches Hg (1012.0 mb)
Winds: from the ESE (110 degrees) at 5 MPH (4 knots; 2.1 m/s)
Visibility: 6 or more miles (10+ km)
Ceiling: ceiling and visibility are OK
Clouds: unknown
Weather: no significant weather observed at this time

METAR text: LUKK 242300Z 17005KT 9999 VCTS -SHRA SCT050CB 18/17 Q1012 R27/290152 TEMPO SCT045CB
Conditions at: LUKK (CHISINAU INTL , MD) observed 2300 UTC 24 September 2020
Temperature: 18.0°C (64°F)
Dewpoint: 17.0°C (63°F) [RH = 94%]
Pressure (altimeter): 29.88 inches Hg (1012.0 mb)
Winds: from the S (170 degrees) at 6 MPH (5 knots; 2.6 m/s)
Visibility: 6 or more miles (10+ km)
Ceiling: at least 12,000 feet AGL
Clouds: scattered clouds at 5000 feet AGL
Weather: VCTS -SHRA  (thunderstorm in vicinity, light rain showers)

METAR text: LUKK 242230Z 21005KT 9999 SCT050CB 18/16 Q1012 R27/290152 TEMPO SCT045CB
Conditions at: LUKK (CHISINAU INTL , MD) observed 2230 UTC 24 September 2020
Temperature: 18.0°C (64°F)
Dewpoint: 16.0°C (61°F) [RH = 88%]
Pressure (altimeter): 29.88 inches Hg (1012.0 mb)
Winds: from the SSW (210 degrees) at 6 MPH (5 knots; 2.6 m/s)
Visibility: 6 or more miles (10+ km)
Ceiling: at least 12,000 feet AGL
Clouds: scattered clouds at 5000 feet AGL
Weather: no significant weather observed at this time

METAR text: LUKK 242200Z 24005KT CAVOK 18/16 Q1013 R27/290152 TEMPO SCT045CB
Conditions at: LUKK (CHISINAU INTL , MD) observed 2200 UTC 24 September 2020
Temperature: 18.0°C (64°F)
Dewpoint: 16.0°C (61°F) [RH = 88%]
Pressure (altimeter): 29.91 inches Hg (1013.0 mb)
Winds: from the WSW (240 degrees) at 6 MPH (5 knots; 2.6 m/s)
Visibility: 6 or more miles (10+ km)
Ceiling: ceiling and visibility are OK
Clouds: unknown
Weather: no significant weather observed at this time

METAR text: LUKK 242130Z 20006KT CAVOK 19/16 Q1013 R27/290152 TEMPO SCT045CB
Conditions at: LUKK (CHISINAU INTL , MD) observed 2130 UTC 24 September 2020
Temperature: 19.0°C (66°F)
Dewpoint: 16.0°C (61°F) [RH = 83%]
Pressure (altimeter): 29.91 inches Hg (1013.0 mb)
Winds: from the SSW (200 degrees) at 7 MPH (6 knots; 3.1 m/s)
Visibility: 6 or more miles (10+ km)
Ceiling: ceiling and visibility are OK
Clouds: unknown
Weather: no significant weather observed at this time

METAR text: LUKK 242100Z 23004KT 190V250 CAVOK 19/17 Q1013 R27/290152 TEMPO SCT045CB
Conditions at: LUKK (CHISINAU INTL , MD) observed 2100 UTC 24 September 2020
Temperature: 19.0°C (66°F)
Dewpoint: 17.0°C (63°F) [RH = 88%]
Pressure (altimeter): 29.91 inches Hg (1013.0 mb)
Winds: from the SW (230 degrees) at 5 MPH (4 knots; 2.1 m/s)
Visibility: 6 or more miles (10+ km)
Ceiling: ceiling and visibility are OK
Clouds: unknown
Weather: no significant weather observed at this time

METAR text: LUKK 242030Z 23005KT 9999 VCTS SCT050CB 19/17 Q1013 R27/290152 TEMPO SCT045CB
Conditions at: LUKK (CHISINAU INTL , MD) observed 2030 UTC 24 September 2020
Temperature: 19.0°C (66°F)
Dewpoint: 17.0°C (63°F) [RH = 88%]
Pressure (altimeter): 29.91 inches Hg (1013.0 mb)
Winds: from the SW (230 degrees) at 6 MPH (5 knots; 2.6 m/s)
Visibility: 6 or more miles (10+ km)
Ceiling: at least 12,000 feet AGL
Clouds: scattered clouds at 5000 feet AGL
Weather: VCTS  (thunderstorm in vicinity)

METAR text: LUKK 242000Z 23007KT CAVOK 19/16 Q1013 R27/290152 TEMPO SCT045CB
Conditions at: LUKK (CHISINAU INTL , MD) observed 2000 UTC 24 September 2020
Temperature: 19.0°C (66°F)
Dewpoint: 16.0°C (61°F) [RH = 83%]
Pressure (altimeter): 29.91 inches Hg (1013.0 mb)
Winds: from the SW (230 degrees) at 8 MPH (7 knots; 3.6 m/s)
Visibility: 6 or more miles (10+ km)
Ceiling: ceiling and visibility are OK
Clouds: unknown
Weather: no significant weather observed at this time

METAR text: LUKK 241930Z 18006KT CAVOK 20/16 Q1013 R27/290152 NOSIG
Conditions at: LUKK (CHISINAU INTL , MD) observed 1930 UTC 24 September 2020
Temperature: 20.0°C (68°F)
Dewpoint: 16.0°C (61°F) [RH = 78%]
Pressure (altimeter): 29.91 inches Hg (1013.0 mb)
Winds: from the S (180 degrees) at 7 MPH (6 knots; 3.1 m/s)
Visibility: 6 or more miles (10+ km)
Ceiling: ceiling and visibility are OK
Clouds: unknown
Weather: no significant weather observed at this time

METAR text: LUKK 241900Z 16005KT 130V220 9999 -SHRA SCT050CB 20/16 Q1013 R27/290250 NOSIG
Conditions at: LUKK (CHISINAU INTL , MD) observed 1900 UTC 24 September 2020
Temperature: 20.0°C (68°F)
Dewpoint: 16.0°C (61°F) [RH = 78%]
Pressure (altimeter): 29.91 inches Hg (1013.0 mb)
Winds: from the SSE (160 degrees) at 6 MPH (5 knots; 2.6 m/s)
Visibility: 6 or more miles (10+ km)
Ceiling: at least 12,000 feet AGL
Clouds: scattered clouds at 5000 feet AGL
Weather: -SHRA  (light rain showers)

METAR text: LUKK 241830Z 16006KT 9999 -SHRA SCT050CB 19/16 Q1013 R27/290250 NOSIG
Conditions at: LUKK (CHISINAU INTL , MD) observed 1830 UTC 24 September 2020
Temperature: 19.0°C (66°F)
Dewpoint: 16.0°C (61°F) [RH = 83%]
Pressure (altimeter): 29.91 inches Hg (1013.0 mb)
Winds: from the SSE (160 degrees) at 7 MPH (6 knots; 3.1 m/s)
Visibility: 6 or more miles (10+ km)
Ceiling: at least 12,000 feet AGL
Clouds: scattered clouds at 5000 feet AGL
Weather: -SHRA  (light rain showers)

METAR text: LUKK 241800Z 16007KT 9999 VCTS -SHRA SCT050CB 20/16 Q1012 RETS R27/290250 TEMPO 5000 TSRA BKN035CB
Conditions at: LUKK (CHISINAU INTL , MD) observed 1800 UTC 24 September 2020
Temperature: 20.0°C (68°F)
Dewpoint: 16.0°C (61°F) [RH = 78%]
Pressure (altimeter): 29.88 inches Hg (1012.0 mb)
Winds: from the SSE (160 degrees) at 8 MPH (7 knots; 3.6 m/s)
Visibility: 6 or more miles (10+ km)
Ceiling: at least 12,000 feet AGL
Clouds: scattered clouds at 5000 feet AGL
Weather: VCTS -SHRA  (thunderstorm in vicinity, light rain showers)

METAR text: LUKK 241730Z 16008KT 9999 VCTS -SHRA SCT050CB SCT089 21/16 Q1012 R27/290250 TEMPO 5000 TSRA BKN035CB
Conditions at: LUKK (CHISINAU INTL , MD) observed 1730 UTC 24 September 2020
Temperature: 21.0°C (70°F)
Dewpoint: 16.0°C (61°F) [RH = 73%]
Pressure (altimeter): 29.88 inches Hg (1012.0 mb)
Winds: from the SSE (160 degrees) at 9 MPH (8 knots; 4.1 m/s)
Visibility: 6 or more miles (10+ km)
Ceiling: at least 12,000 feet AGL
Clouds: scattered clouds at 5000 feet AGL
scattered clouds at 8900 feet AGL
Weather: VCTS -SHRA  (thunderstorm in vicinity, light rain showers)

METAR text: LUKK 241700Z VRB04KT 9999 BKN042CB 21/16 Q1012 R27/290250 TEMPO 5000 TSRA BKN035CB
Conditions at: LUKK (CHISINAU INTL , MD) observed 1700 UTC 24 September 2020
Temperature: 21.0°C (70°F)
Dewpoint: 16.0°C (61°F) [RH = 73%]
Pressure (altimeter): 29.88 inches Hg (1012.0 mb)
Winds: variable direction winds at 5 MPH (4 knots; 2.1 m/s)
Visibility: 6 or more miles (10+ km)
Ceiling: 4200 feet AGL
Clouds: broken clouds at 4200 feet AGL
Weather: no significant weather observed at this time

METAR text: LUKK 241630Z 29014KT 9999 VCTS -SHRA BKN040CB 24/13 Q1012 R27/D TEMPO 5000 TSRA BKN035CB
Conditions at: LUKK (CHISINAU INTL , MD) observed 1630 UTC 24 September 2020
Temperature: 24.0°C (75°F)
Dewpoint: 13.0°C (55°F) [RH = 50%]
Pressure (altimeter): 29.88 inches Hg (1012.0 mb)
Winds: from the WNW (290 degrees) at 16 MPH (14 knots; 7.2 m/s)
Visibility: 6 or more miles (10+ km)
Ceiling: 4000 feet AGL
Clouds: broken clouds at 4000 feet AGL
Weather: VCTS -SHRA  (thunderstorm in vicinity, light rain showers)

METAR text: LUKK 241600Z 16006KT 9999 SCT049CB 24/13 Q1012 R09/D TEMPO BKN040CB
Conditions at: LUKK (CHISINAU INTL , MD) observed 1600 UTC 24 September 2020
Temperature: 24.0°C (75°F)
Dewpoint: 13.0°C (55°F) [RH = 50%]
Pressure (altimeter): 29.88 inches Hg (1012.0 mb)
Winds: from the SSE (160 degrees) at 7 MPH (6 knots; 3.1 m/s)
Visibility: 6 or more miles (10+ km)
Ceiling: at least 12,000 feet AGL
Clouds: scattered clouds at 4900 feet AGL
Weather: no significant weather observed at this time

METAR text: LUKK 241530Z 15008KT 9999 SCT049CB 25/13 Q1011 R27/D TEMPO BKN040CB
Conditions at: LUKK (CHISINAU INTL , MD) observed 1530 UTC 24 September 2020
Temperature: 25.0°C (77°F)
Dewpoint: 13.0°C (55°F) [RH = 47%]
Pressure (altimeter): 29.85 inches Hg (1011.0 mb)
Winds: from the SSE (150 degrees) at 9 MPH (8 knots; 4.1 m/s)
Visibility: 6 or more miles (10+ km)
Ceiling: at least 12,000 feet AGL
Clouds: scattered clouds at 4900 feet AGL
Weather: no significant weather observed at this time

METAR text: LUKK 241500Z 15008KT 9999 FEW049CB 26/13 Q1011 R27/D NOSIG
Conditions at: LUKK (CHISINAU INTL , MD) observed 1500 UTC 24 September 2020
Temperature: 26.0°C (79°F)
Dewpoint: 13.0°C (55°F) [RH = 45%]
Pressure (altimeter): 29.85 inches Hg (1011.0 mb)
Winds: from the SSE (150 degrees) at 9 MPH (8 knots; 4.1 m/s)
Visibility: 6 or more miles (10+ km)
Ceiling: at least 12,000 feet AGL
Clouds: few clouds at 4900 feet AGL
Weather: no significant weather observed at this time

METAR text: LUKK 241430Z 15009KT 9999 FEW049CB 26/13 Q1011 R27/D NOSIG
Conditions at: LUKK (CHISINAU INTL , MD) observed 1430 UTC 24 September 2020
Temperature: 26.0°C (79°F)
Dewpoint: 13.0°C (55°F) [RH = 45%]
Pressure (altimeter): 29.85 inches Hg (1011.0 mb)
Winds: from the SSE (150 degrees) at 10 MPH (9 knots; 4.6 m/s)
Visibility: 6 or more miles (10+ km)
Ceiling: at least 12,000 feet AGL
Clouds: few clouds at 4900 feet AGL
Weather: no significant weather observed at this time

METAR text: LUKK 241400Z 19006KT 140V250 CAVOK 27/13 Q1011 R27/D NOSIG
Conditions at: LUKK (CHISINAU INTL , MD) observed 1400 UTC 24 September 2020
Temperature: 27.0°C (81°F)
Dewpoint: 13.0°C (55°F) [RH = 42%]
Pressure (altimeter): 29.85 inches Hg (1011.0 mb)
Winds: from the S (190 degrees) at 7 MPH (6 knots; 3.1 m/s)
Visibility: 6 or more miles (10+ km)
Ceiling: ceiling and visibility are OK
Clouds: unknown
Weather: no significant weather observed at this time

METAR text: LUKK 241330Z 18006KT 150V220 CAVOK 27/12 Q1011 R27/D NOSIG
Conditions at: LUKK (CHISINAU INTL , MD) observed 1330 UTC 24 September 2020
Temperature: 27.0°C (81°F)
Dewpoint: 12.0°C (54°F) [RH = 39%]
Pressure (altimeter): 29.85 inches Hg (1011.0 mb)
Winds: from the S (180 degrees) at 7 MPH (6 knots; 3.1 m/s)
Visibility: 6 or more miles (10+ km)
Ceiling: ceiling and visibility are OK
Clouds: unknown
Weather: no significant weather observed at this time

METAR text: LUKK 241300Z 18009KT 140V220 CAVOK 27/12 Q1011 R27/D NOSIG
Conditions at: LUKK (CHISINAU INTL , MD) observed 1300 UTC 24 September 2020
Temperature: 27.0°C (81°F)
Dewpoint: 12.0°C (54°F) [RH = 39%]
Pressure (altimeter): 29.85 inches Hg (1011.0 mb)
Winds: from the S (180 degrees) at 10 MPH (9 knots; 4.6 m/s)
Visibility: 6 or more miles (10+ km)
Ceiling: ceiling and visibility are OK
Clouds: unknown
Weather: no significant weather observed at this time

METAR text: LUKK 241230Z 17008KT 110V220 CAVOK 27/13 Q1012 R27/D NOSIG
Conditions at: LUKK (CHISINAU INTL , MD) observed 1230 UTC 24 September 2020
Temperature: 27.0°C (81°F)
Dewpoint: 13.0°C (55°F) [RH = 42%]
Pressure (altimeter): 29.88 inches Hg (1012.0 mb)
Winds: from the S (170 degrees) at 9 MPH (8 knots; 4.1 m/s)
Visibility: 6 or more miles (10+ km)
Ceiling: ceiling and visibility are OK
Clouds: unknown
Weather: no significant weather observed at this time

METAR text: LUKK 241200Z 20009KT 140V240 CAVOK 27/13 Q1011 R27/D NOSIG
Conditions at: LUKK (CHISINAU INTL , MD) observed 1200 UTC 24 September 2020
Temperature: 27.0°C (81°F)
Dewpoint: 13.0°C (55°F) [RH = 42%]
Pressure (altimeter): 29.85 inches Hg (1011.0 mb)
Winds: from the SSW (200 degrees) at 10 MPH (9 knots; 4.6 m/s)
Visibility: 6 or more miles (10+ km)
Ceiling: ceiling and visibility are OK
Clouds: unknown
Weather: no significant weather observed at this time

METAR text: LUKK 241130Z 19008KT 130V220 CAVOK 27/13 Q1012 R09/D NOSIG
Conditions at: LUKK (CHISINAU INTL , MD) observed 1130 UTC 24 September 2020
Temperature: 27.0°C (81°F)
Dewpoint: 13.0°C (55°F) [RH = 42%]
Pressure (altimeter): 29.88 inches Hg (1012.0 mb)
Winds: from the S (190 degrees) at 9 MPH (8 knots; 4.1 m/s)
Visibility: 6 or more miles (10+ km)
Ceiling: ceiling and visibility are OK
Clouds: unknown
Weather: no significant weather observed at this time

METAR text: LUKK 241100Z 18008KT 090V250 CAVOK 26/13 Q1012 R09/D NOSIG
Conditions at: LUKK (CHISINAU INTL , MD) observed 1100 UTC 24 September 2020
Temperature: 26.0°C (79°F)
Dewpoint: 13.0°C (55°F) [RH = 45%]
Pressure (altimeter): 29.88 inches Hg (1012.0 mb)
Winds: from the S (180 degrees) at 9 MPH (8 knots; 4.1 m/s)
Visibility: 6 or more miles (10+ km)
Ceiling: ceiling and visibility are OK
Clouds: unknown
Weather: no significant weather observed at this time

METAR text: LUKK 241030Z 18008KT 120V220 CAVOK 26/12 Q1012 R27/D NOSIG
Conditions at: LUKK (CHISINAU INTL , MD) observed 1030 UTC 24 September 2020
Temperature: 26.0°C (79°F)
Dewpoint: 12.0°C (54°F) [RH = 42%]
Pressure (altimeter): 29.88 inches Hg (1012.0 mb)
Winds: from the S (180 degrees) at 9 MPH (8 knots; 4.1 m/s)
Visibility: 6 or more miles (10+ km)
Ceiling: ceiling and visibility are OK
Clouds: unknown
Weather: no significant weather observed at this time

METAR text: LUKK 241000Z 19009KT 140V220 CAVOK 26/12 Q1012 R09/D NOSIG
Conditions at: LUKK (CHISINAU INTL , MD) observed 1000 UTC 24 September 2020
Temperature: 26.0°C (79°F)
Dewpoint: 12.0°C (54°F) [RH = 42%]
Pressure (altimeter): 29.88 inches Hg (1012.0 mb)
Winds: from the S (190 degrees) at 10 MPH (9 knots; 4.6 m/s)
Visibility: 6 or more miles (10+ km)
Ceiling: ceiling and visibility are OK
Clouds: unknown
Weather: no significant weather observed at this time

METAR text: LUKK 240930Z 20010KT 150V230 CAVOK 25/13 Q1013 R27/D NOSIG
Conditions at: LUKK (CHISINAU INTL , MD) observed 0930 UTC 24 September 2020
Temperature: 25.0°C (77°F)
Dewpoint: 13.0°C (55°F) [RH = 47%]
Pressure (altimeter): 29.91 inches Hg (1013.0 mb)
Winds: from the SSW (200 degrees) at 12 MPH (10 knots; 5.1 m/s)
Visibility: 6 or more miles (10+ km)
Ceiling: ceiling and visibility are OK
Clouds: unknown
Weather: no significant weather observed at this time

METAR text: LUKK 240900Z 15009KT 120V190 CAVOK 24/13 Q1013 R09/D NOSIG
Conditions at: LUKK (CHISINAU INTL , MD) observed 0900 UTC 24 September 2020
Temperature: 24.0°C (75°F)
Dewpoint: 13.0°C (55°F) [RH = 50%]
Pressure (altimeter): 29.91 inches Hg (1013.0 mb)
Winds: from the SSE (150 degrees) at 10 MPH (9 knots; 4.6 m/s)
Visibility: 6 or more miles (10+ km)
Ceiling: ceiling and visibility are OK
Clouds: unknown
Weather: no significant weather observed at this time

METAR text: LUKK 240830Z 17007KT 120V210 CAVOK 23/14 Q1013 R09/D NOSIG
Conditions at: LUKK (CHISINAU INTL , MD) observed 0830 UTC 24 September 2020
Temperature: 23.0°C (73°F)
Dewpoint: 14.0°C (57°F) [RH = 57%]
Pressure (altimeter): 29.91 inches Hg (1013.0 mb)
Winds: from the S (170 degrees) at 8 MPH (7 knots; 3.6 m/s)
Visibility: 6 or more miles (10+ km)
Ceiling: ceiling and visibility are OK
Clouds: unknown
Weather: no significant weather observed at this time

METAR text: LUKK 240800Z 16009KT CAVOK 22/15 Q1013 R09/D NOSIG
Conditions at: LUKK (CHISINAU INTL , MD) observed 0800 UTC 24 September 2020
Temperature: 22.0°C (72°F)
Dewpoint: 15.0°C (59°F) [RH = 65%]
Pressure (altimeter): 29.91 inches Hg (1013.0 mb)
Winds: from the SSE (160 degrees) at 10 MPH (9 knots; 4.6 m/s)
Visibility: 6 or more miles (10+ km)
Ceiling: ceiling and visibility are OK
Clouds: unknown
Weather: no significant weather observed at this time

METAR text: LUKK 240730Z 16009KT CAVOK 21/14 Q1013 R09/D NOSIG
Conditions at: LUKK (CHISINAU INTL , MD) observed 0730 UTC 24 September 2020
Temperature: 21.0°C (70°F)
Dewpoint: 14.0°C (57°F) [RH = 64%]
Pressure (altimeter): 29.91 inches Hg (1013.0 mb)
Winds: from the SSE (160 degrees) at 10 MPH (9 knots; 4.6 m/s)
Visibility: 6 or more miles (10+ km)
Ceiling: ceiling and visibility are OK
Clouds: unknown
Weather: no significant weather observed at this time

METAR text: LUKK 240700Z 12005KT 090V170 CAVOK 18/12 Q1014 R09/D NOSIG
Conditions at: LUKK (CHISINAU INTL , MD) observed 0700 UTC 24 September 2020
Temperature: 18.0°C (64°F)
Dewpoint: 12.0°C (54°F) [RH = 68%]
Pressure (altimeter): 29.94 inches Hg (1014.0 mb)
Winds: from the ESE (120 degrees) at 6 MPH (5 knots; 2.6 m/s)
Visibility: 6 or more miles (10+ km)
Ceiling: ceiling and visibility are OK
Clouds: unknown
Weather: no significant weather observed at this time

Forecast for: LUKK (CHISINAU INTL , MD)
Text: TAF LUKK 251720Z 2518/2618 16008KT CAVOK
Forecast period: 1800 UTC 25 September 2020 to 0000 UTC 26 September 2020
Forecast type: FROM: standard forecast or significant change
Winds: from the SSE (160 degrees) at 9 MPH (8 knots; 4.1 m/s)
Visibility: 6 or more miles (10+ km)
Ceiling: unknown
Clouds: missing
Weather: NSW  (no significant weather)
Text: BECMG 2600/2602 BKN006
Forecast period: 0000 to 0500 UTC 26 September 2020
Forecast type: BECOMING: Conditions expected to become as follows by 0200 UTC 26 September 2020
Winds: from the SSE (160 degrees) at 9 MPH (8 knots; 4.1 m/s)
Visibility: 6 or more miles (10+ km)
Ceiling: 600 feet AGL
Clouds: broken clouds at 600 feet AGL
Weather: NSW  (no significant weather)
Text: TEMPO 2602/2605 3400 BR BKN003
Forecast period: 0200 to 0500 UTC 26 September 2020
Forecast type: TEMPORARY: The following changes expected for less than half the time period
Visibility: 2.11 miles (3.40 km)
Ceiling: 300 feet AGL
Clouds: broken clouds at 300 feet AGL
Weather: BR  (mist)
Text: BECMG 2605/2607 15016KT SCT040
Forecast period: 0500 to 1800 UTC 26 September 2020
Forecast type: BECOMING: Conditions expected to become as follows by 0700 UTC 26 September 2020
Winds: from the SSE (150 degrees) at 18 MPH (16 knots; 8.2 m/s)
Visibility: 6 or more miles (10+ km)
Ceiling: at least 12,000 feet AGL
Clouds: scattered clouds at 4000 feet AGL
Weather: NSW  (no significant weather)
Text: TEMPO 2607/2616 14020G34KT
Forecast period: 0700 to 1600 UTC 26 September 2020
Forecast type: TEMPORARY: The following changes expected for less than half the time period
Winds: from the SE (140 degrees) at 23 MPH (20 knots; 10.3 m/s)
gusting to 39 MPH (34 knots; 17.5 m/s)
Visibility: missing
Ceiling: unknown
Clouds: missing
Weather: no significant weather forecast for this period
Text: TEMPO 2616/2618 14022G36KT SCT035CB
Forecast period: 1600 to 1800 UTC 26 September 2020
Forecast type: TEMPORARY: The following changes expected for less than half the time period
Winds: from the SE (140 degrees) at 25 MPH (22 knots; 11.3 m/s)
gusting to 41 MPH (36 knots; 18.5 m/s)
Visibility: missing
Ceiling: at least 12,000 feet AGL
Clouds: scattered clouds at 3500 feet AGL
Weather: no significant weather forecast for this period